sensor_id;sensor_type;location;lat;lon;timestamp;temperature;humidity
254;DHT22;590;48.772;8.846;2022-12-07T00:01:18;4.40;99.90
254;DHT22;590;48.772;8.846;2022-12-07T00:03:48;4.40;99.90
254;DHT22;590;48.772;8.846;2022-12-07T00:06:17;4.40;99.90
254;DHT22;590;48.772;8.846;2022-12-07T00:08:46;4.40;99.90
254;DHT22;590;48.772;8.846;2022-12-07T00:11:18;4.30;99.90
254;DHT22;590;48.772;8.846;2022-12-07T00:13:47;4.30;99.90
254;DHT22;590;48.772;8.846;2022-12-07T00:16:20;4.30;99.90
254;DHT22;590;48.772;8.846;2022-12-07T00:18:49;4.30;99.90
254;DHT22;590;48.772;8.846;2022-12-07T00:21:19;4.30;99.90
254;DHT22;590;48.772;8.846;2022-12-07T00:23:48;4.30;99.90
254;DHT22;590;48.772;8.846;2022-12-07T00:26:19;4.30;99.90
254;DHT22;590;48.772;8.846;2022-12-07T00:28:49;4.30;99.90
254;DHT22;590;48.772;8.846;2022-12-07T00:31:18;4.30;99.90
254;DHT22;590;48.772;8.846;2022-12-07T00:33:47;4.30;99.90
254;DHT22;590;48.772;8.846;2022-12-07T00:36:18;4.30;99.90
254;DHT22;590;48.772;8.846;2022-12-07T00:38:52;4.30;99.90
254;DHT22;590;48.772;8.846;2022-12-07T00:41:24;4.30;99.90
254;DHT22;590;48.772;8.846;2022-12-07T00:43:53;4.30;99.90
254;DHT22;590;48.772;8.846;2022-12-07T00:46:22;4.20;99.90
254;DHT22;590;48.772;8.846;2022-12-07T00:48:51;4.20;99.90
254;DHT22;590;48.772;8.846;2022-12-07T00:51:22;4.20;99.90
254;DHT22;590;48.772;8.846;2022-12-07T00:53:50;4.20;99.90
254;DHT22;590;48.772;8.846;2022-12-07T00:56:20;4.20;99.90
254;DHT22;590;48.772;8.846;2022-12-07T00:58:55;4.20;99.90
254;DHT22;590;48.772;8.846;2022-12-07T01:01:24;4.20;99.90
254;DHT22;590;48.772;8.846;2022-12-07T01:03:52;4.20;99.90
254;DHT22;590;48.772;8.846;2022-12-07T01:06:23;4.20;99.90
254;DHT22;590;48.772;8.846;2022-12-07T01:08:51;4.10;99.90
254;DHT22;590;48.772;8.846;2022-12-07T01:11:22;4.20;99.90
254;DHT22;590;48.772;8.846;2022-12-07T01:13:50;4.10;99.90
254;DHT22;590;48.772;8.846;2022-12-07T01:16:21;4.10;99.90
254;DHT22;590;48.772;8.846;2022-12-07T01:18:51;4.10;99.90
254;DHT22;590;48.772;8.846;2022-12-07T01:21:21;4.10;99.90
254;DHT22;590;48.772;8.846;2022-12-07T01:23:50;4.10;99.90
254;DHT22;590;48.772;8.846;2022-12-07T01:26:21;4.10;99.90
254;DHT22;590;48.772;8.846;2022-12-07T01:28:50;4.20;99.90
254;DHT22;590;48.772;8.846;2022-12-07T01:31:21;4.20;99.90
254;DHT22;590;48.772;8.846;2022-12-07T01:33:52;4.20;99.90
254;DHT22;590;48.772;8.846;2022-12-07T01:36:22;4.10;99.90
254;DHT22;590;48.772;8.846;2022-12-07T01:38:53;4.20;99.90
254;DHT22;590;48.772;8.846;2022-12-07T01:41:24;4.20;99.90
254;DHT22;590;48.772;8.846;2022-12-07T01:44:12;4.20;99.90
254;DHT22;590;48.772;8.846;2022-12-07T01:46:43;4.20;99.90
254;DHT22;590;48.772;8.846;2022-12-07T01:49:18;4.20;99.90
254;DHT22;590;48.772;8.846;2022-12-07T01:51:49;4.20;99.90
254;DHT22;590;48.772;8.846;2022-12-07T01:54:20;4.20;99.90
254;DHT22;590;48.772;8.846;2022-12-07T01:56:51;4.20;99.90
254;DHT22;590;48.772;8.846;2022-12-07T01:59:23;4.10;99.90
254;DHT22;590;48.772;8.846;2022-12-07T02:01:54;4.10;99.90
254;DHT22;590;48.772;8.846;2022-12-07T02:04:23;4.10;99.90
254;DHT22;590;48.772;8.846;2022-12-07T02:06:52;4.10;99.90
254;DHT22;590;48.772;8.846;2022-12-07T02:09:21;4.10;99.90
254;DHT22;590;48.772;8.846;2022-12-07T02:11:49;4.10;99.90
254;DHT22;590;48.772;8.846;2022-12-07T02:14:17;4.10;99.90
254;DHT22;590;48.772;8.846;2022-12-07T02:17:02;4.10;99.90
254;DHT22;590;48.772;8.846;2022-12-07T02:23:00;4.10;99.90
254;DHT22;590;48.772;8.846;2022-12-07T02:25:48;4.10;99.90
254;DHT22;590;48.772;8.846;2022-12-07T02:28:27;4.10;99.90
254;DHT22;590;48.772;8.846;2022-12-07T02:31:02;4.10;99.90
254;DHT22;590;48.772;8.846;2022-12-07T02:33:35;4.00;99.90
254;DHT22;590;48.772;8.846;2022-12-07T02:36:07;4.00;99.90
254;DHT22;590;48.772;8.846;2022-12-07T02:38:39;4.00;99.90
254;DHT22;590;48.772;8.846;2022-12-07T02:41:12;4.00;99.90
254;DHT22;590;48.772;8.846;2022-12-07T02:43:43;4.00;99.90
254;DHT22;590;48.772;8.846;2022-12-07T02:46:16;4.00;99.90
254;DHT22;590;48.772;8.846;2022-12-07T02:48:45;4.00;99.90
254;DHT22;590;48.772;8.846;2022-12-07T02:51:14;4.00;99.90
254;DHT22;590;48.772;8.846;2022-12-07T02:53:43;4.00;99.90
254;DHT22;590;48.772;8.846;2022-12-07T02:56:20;4.00;99.90
254;DHT22;590;48.772;8.846;2022-12-07T02:58:57;4.00;99.90
254;DHT22;590;48.772;8.846;2022-12-07T03:01:37;4.00;99.90
254;DHT22;590;48.772;8.846;2022-12-07T03:04:14;4.00;99.90
254;DHT22;590;48.772;8.846;2022-12-07T03:06:50;4.00;99.90
254;DHT22;590;48.772;8.846;2022-12-07T03:09:26;4.00;99.90
254;DHT22;590;48.772;8.846;2022-12-07T03:12:01;4.00;99.90
254;DHT22;590;48.772;8.846;2022-12-07T03:14:35;4.00;99.90
254;DHT22;590;48.772;8.846;2022-12-07T03:17:08;4.00;99.90
254;DHT22;590;48.772;8.846;2022-12-07T03:19:41;4.00;99.90
254;DHT22;590;48.772;8.846;2022-12-07T03:22:12;4.00;99.90
254;DHT22;590;48.772;8.846;2022-12-07T03:24:45;4.00;99.90
254;DHT22;590;48.772;8.846;2022-12-07T03:27:16;3.90;99.90
254;DHT22;590;48.772;8.846;2022-12-07T03:29:49;3.90;99.90
254;DHT22;590;48.772;8.846;2022-12-07T03:32:23;3.90;99.90
254;DHT22;590;48.772;8.846;2022-12-07T03:34:57;3.90;99.90
254;DHT22;590;48.772;8.846;2022-12-07T03:37:33;3.90;99.90
254;DHT22;590;48.772;8.846;2022-12-07T03:40:11;3.90;99.90
254;DHT22;590;48.772;8.846;2022-12-07T03:42:40;3.90;99.90
254;DHT22;590;48.772;8.846;2022-12-07T03:45:09;3.90;99.90
254;DHT22;590;48.772;8.846;2022-12-07T03:47:45;3.90;99.90
254;DHT22;590;48.772;8.846;2022-12-07T03:50:21;3.90;99.90
254;DHT22;590;48.772;8.846;2022-12-07T03:52:55;3.90;99.90
254;DHT22;590;48.772;8.846;2022-12-07T03:55:27;3.90;99.90
254;DHT22;590;48.772;8.846;2022-12-07T03:58:00;3.90;99.90
254;DHT22;590;48.772;8.846;2022-12-07T04:00:30;3.80;99.90
254;DHT22;590;48.772;8.846;2022-12-07T04:02:59;3.80;99.90
254;DHT22;590;48.772;8.846;2022-12-07T04:05:27;3.80;99.90
254;DHT22;590;48.772;8.846;2022-12-07T04:07:56;3.80;99.90
254;DHT22;590;48.772;8.846;2022-12-07T04:10:24;3.80;99.90
254;DHT22;590;48.772;8.846;2022-12-07T04:12:52;3.70;99.90
254;DHT22;590;48.772;8.846;2022-12-07T04:15:20;3.70;99.90
254;DHT22;590;48.772;8.846;2022-12-07T04:17:48;3.70;99.90
254;DHT22;590;48.772;8.846;2022-12-07T04:20:17;3.70;99.90
254;DHT22;590;48.772;8.846;2022-12-07T04:22:46;3.70;99.90
254;DHT22;590;48.772;8.846;2022-12-07T04:25:14;3.70;99.90
254;DHT22;590;48.772;8.846;2022-12-07T04:27:42;3.70;99.90
254;DHT22;590;48.772;8.846;2022-12-07T04:30:10;3.60;99.90
254;DHT22;590;48.772;8.846;2022-12-07T04:32:38;3.60;99.90
254;DHT22;590;48.772;8.846;2022-12-07T04:35:07;3.60;99.90
254;DHT22;590;48.772;8.846;2022-12-07T04:37:36;3.60;99.90
254;DHT22;590;48.772;8.846;2022-12-07T04:40:07;3.50;99.90
254;DHT22;590;48.772;8.846;2022-12-07T04:42:37;3.40;99.90
254;DHT22;590;48.772;8.846;2022-12-07T04:45:06;3.40;99.90
254;DHT22;590;48.772;8.846;2022-12-07T04:47:35;3.40;99.90
254;DHT22;590;48.772;8.846;2022-12-07T04:50:04;3.30;99.90
254;DHT22;590;48.772;8.846;2022-12-07T04:52:32;3.30;99.90
254;DHT22;590;48.772;8.846;2022-12-07T04:55:02;3.20;99.90
254;DHT22;590;48.772;8.846;2022-12-07T04:57:30;3.20;99.90
254;DHT22;590;48.772;8.846;2022-12-07T04:59:58;3.10;99.90
254;DHT22;590;48.772;8.846;2022-12-07T05:02:26;3.10;99.90
254;DHT22;590;48.772;8.846;2022-12-07T05:04:54;3.10;99.90
254;DHT22;590;48.772;8.846;2022-12-07T05:07:22;3.00;99.90
254;DHT22;590;48.772;8.846;2022-12-07T05:09:50;3.00;99.90
254;DHT22;590;48.772;8.846;2022-12-07T05:12:20;2.90;99.90
254;DHT22;590;48.772;8.846;2022-12-07T05:14:48;2.90;99.90
254;DHT22;590;48.772;8.846;2022-12-07T05:17:16;2.80;99.90
254;DHT22;590;48.772;8.846;2022-12-07T05:19:44;2.70;99.90
254;DHT22;590;48.772;8.846;2022-12-07T05:22:12;2.70;99.90
254;DHT22;590;48.772;8.846;2022-12-07T05:24:40;2.60;99.90
254;DHT22;590;48.772;8.846;2022-12-07T05:27:08;2.60;99.90
254;DHT22;590;48.772;8.846;2022-12-07T05:29:38;2.60;99.90
254;DHT22;590;48.772;8.846;2022-12-07T05:32:06;2.50;99.90
254;DHT22;590;48.772;8.846;2022-12-07T05:34:34;2.60;99.90
254;DHT22;590;48.772;8.846;2022-12-07T05:37:02;2.60;99.90
254;DHT22;590;48.772;8.846;2022-12-07T05:39:30;2.60;99.90
254;DHT22;590;48.772;8.846;2022-12-07T05:41:58;2.60;99.90
254;DHT22;590;48.772;8.846;2022-12-07T05:44:44;2.60;99.90
254;DHT22;590;48.772;8.846;2022-12-07T05:47:13;2.60;99.90
254;DHT22;590;48.772;8.846;2022-12-07T05:49:41;2.60;99.90
254;DHT22;590;48.772;8.846;2022-12-07T05:52:09;2.60;99.90
254;DHT22;590;48.772;8.846;2022-12-07T05:54:37;2.60;99.90
254;DHT22;590;48.772;8.846;2022-12-07T05:57:05;2.60;99.90
254;DHT22;590;48.772;8.846;2022-12-07T05:59:33;2.70;99.90
254;DHT22;590;48.772;8.846;2022-12-07T06:02:03;2.60;99.90
254;DHT22;590;48.772;8.846;2022-12-07T06:04:34;2.60;99.90
254;DHT22;590;48.772;8.846;2022-12-07T06:07:02;2.60;99.90
254;DHT22;590;48.772;8.846;2022-12-07T06:09:31;2.60;99.90
254;DHT22;590;48.772;8.846;2022-12-07T06:11:59;2.60;99.90
254;DHT22;590;48.772;8.846;2022-12-07T06:14:45;2.60;99.90
254;DHT22;590;48.772;8.846;2022-12-07T06:17:15;2.60;99.90
254;DHT22;590;48.772;8.846;2022-12-07T06:19:43;2.60;99.90
254;DHT22;590;48.772;8.846;2022-12-07T06:22:12;2.60;99.90
254;DHT22;590;48.772;8.846;2022-12-07T06:24:40;2.60;99.90
254;DHT22;590;48.772;8.846;2022-12-07T06:27:09;2.70;99.90
254;DHT22;590;48.772;8.846;2022-12-07T06:29:37;2.70;99.90
254;DHT22;590;48.772;8.846;2022-12-07T06:32:05;2.60;99.90
254;DHT22;590;48.772;8.846;2022-12-07T06:34:35;2.60;99.90
254;DHT22;590;48.772;8.846;2022-12-07T06:37:03;2.70;99.90
254;DHT22;590;48.772;8.846;2022-12-07T06:39:31;2.70;99.90
254;DHT22;590;48.772;8.846;2022-12-07T06:41:59;2.70;99.90
254;DHT22;590;48.772;8.846;2022-12-07T06:44:27;2.60;99.90
254;DHT22;590;48.772;8.846;2022-12-07T06:46:55;2.60;99.90
254;DHT22;590;48.772;8.846;2022-12-07T06:49:45;2.60;99.90
254;DHT22;590;48.772;8.846;2022-12-07T06:52:13;2.60;99.90
254;DHT22;590;48.772;8.846;2022-12-07T06:54:41;2.70;99.90
254;DHT22;590;48.772;8.846;2022-12-07T06:57:08;2.70;99.90
254;DHT22;590;48.772;8.846;2022-12-07T06:59:36;2.70;99.90
254;DHT22;590;48.772;8.846;2022-12-07T07:02:05;2.70;99.90
254;DHT22;590;48.772;8.846;2022-12-07T07:04:33;2.80;99.90
254;DHT22;590;48.772;8.846;2022-12-07T07:07:02;2.70;99.90
254;DHT22;590;48.772;8.846;2022-12-07T07:09:30;2.70;99.90
254;DHT22;590;48.772;8.846;2022-12-07T07:11:58;2.70;99.90
254;DHT22;590;48.772;8.846;2022-12-07T07:14:26;2.70;99.90
254;DHT22;590;48.772;8.846;2022-12-07T07:16:54;2.70;99.90
254;DHT22;590;48.772;8.846;2022-12-07T07:19:22;2.70;99.90
254;DHT22;590;48.772;8.846;2022-12-07T07:21:50;2.70;99.90
254;DHT22;590;48.772;8.846;2022-12-07T07:24:20;2.80;99.90
254;DHT22;590;48.772;8.846;2022-12-07T07:26:48;2.80;99.90
254;DHT22;590;48.772;8.846;2022-12-07T07:29:16;2.90;99.90
254;DHT22;590;48.772;8.846;2022-12-07T07:31:44;2.90;99.90
254;DHT22;590;48.772;8.846;2022-12-07T07:34:12;3.00;99.90
254;DHT22;590;48.772;8.846;2022-12-07T07:36:40;3.00;99.90
254;DHT22;590;48.772;8.846;2022-12-07T07:39:09;3.00;99.90
254;DHT22;590;48.772;8.846;2022-12-07T07:41:40;3.10;99.90
254;DHT22;590;48.772;8.846;2022-12-07T07:44:09;3.10;99.90
254;DHT22;590;48.772;8.846;2022-12-07T07:46:37;3.20;99.90
254;DHT22;590;48.772;8.846;2022-12-07T07:49:06;3.20;99.90
254;DHT22;590;48.772;8.846;2022-12-07T07:51:34;3.20;99.90
254;DHT22;590;48.772;8.846;2022-12-07T07:54:02;3.30;99.90
254;DHT22;590;48.772;8.846;2022-12-07T07:56:30;3.30;99.90
254;DHT22;590;48.772;8.846;2022-12-07T07:59:00;3.40;99.90
254;DHT22;590;48.772;8.846;2022-12-07T08:01:28;3.40;99.90
254;DHT22;590;48.772;8.846;2022-12-07T08:03:56;3.40;99.90
254;DHT22;590;48.772;8.846;2022-12-07T08:06:24;3.50;99.90
254;DHT22;590;48.772;8.846;2022-12-07T08:08:58;3.50;99.90
254;DHT22;590;48.772;8.846;2022-12-07T08:11:26;3.60;99.90
254;DHT22;590;48.772;8.846;2022-12-07T08:13:53;3.70;99.90
254;DHT22;590;48.772;8.846;2022-12-07T08:16:23;3.70;99.90
254;DHT22;590;48.772;8.846;2022-12-07T08:18:51;3.80;99.90
254;DHT22;590;48.772;8.846;2022-12-07T08:21:19;3.80;99.90
254;DHT22;590;48.772;8.846;2022-12-07T08:23:47;3.80;99.90
254;DHT22;590;48.772;8.846;2022-12-07T08:26:16;3.90;99.90
254;DHT22;590;48.772;8.846;2022-12-07T08:28:44;4.00;99.90
254;DHT22;590;48.772;8.846;2022-12-07T08:31:15;4.00;99.90
254;DHT22;590;48.772;8.846;2022-12-07T08:33:46;4.10;99.90
254;DHT22;590;48.772;8.846;2022-12-07T08:36:15;4.20;99.90
254;DHT22;590;48.772;8.846;2022-12-07T08:38:43;4.20;99.90
254;DHT22;590;48.772;8.846;2022-12-07T08:41:31;4.30;99.90
254;DHT22;590;48.772;8.846;2022-12-07T08:44:00;4.30;99.90
254;DHT22;590;48.772;8.846;2022-12-07T08:46:31;4.40;99.90
254;DHT22;590;48.772;8.846;2022-12-07T08:49:05;4.40;99.90
254;DHT22;590;48.772;8.846;2022-12-07T08:51:34;4.50;99.90
254;DHT22;590;48.772;8.846;2022-12-07T08:54:05;4.50;99.90
254;DHT22;590;48.772;8.846;2022-12-07T08:56:34;4.60;99.90
254;DHT22;590;48.772;8.846;2022-12-07T08:59:03;4.60;99.90
254;DHT22;590;48.772;8.846;2022-12-07T09:01:32;4.60;99.90
254;DHT22;590;48.772;8.846;2022-12-07T09:04:00;4.70;99.90
254;DHT22;590;48.772;8.846;2022-12-07T09:06:30;4.80;99.90
254;DHT22;590;48.772;8.846;2022-12-07T09:08:59;4.80;99.90
254;DHT22;590;48.772;8.846;2022-12-07T09:11:28;4.90;99.90
254;DHT22;590;48.772;8.846;2022-12-07T09:13:56;4.90;98.30
254;DHT22;590;48.772;8.846;2022-12-07T09:16:24;5.00;98.00
254;DHT22;590;48.772;8.846;2022-12-07T09:18:52;5.00;98.30
254;DHT22;590;48.772;8.846;2022-12-07T09:21:20;5.00;98.60
254;DHT22;590;48.772;8.846;2022-12-07T09:23:49;5.10;98.70
254;DHT22;590;48.772;8.846;2022-12-07T09:26:17;5.20;98.60
254;DHT22;590;48.772;8.846;2022-12-07T09:28:45;5.30;97.90
254;DHT22;590;48.772;8.846;2022-12-07T09:31:13;5.40;97.40
254;DHT22;590;48.772;8.846;2022-12-07T09:33:54;5.50;96.70
254;DHT22;590;48.772;8.846;2022-12-07T09:36:23;5.60;94.60
254;DHT22;590;48.772;8.846;2022-12-07T09:38:52;5.70;93.70
254;DHT22;590;48.772;8.846;2022-12-07T09:41:21;5.80;94.10
254;DHT22;590;48.772;8.846;2022-12-07T09:43:50;5.80;94.10
254;DHT22;590;48.772;8.846;2022-12-07T09:46:20;5.90;94.10
254;DHT22;590;48.772;8.846;2022-12-07T09:48:49;6.00;93.70
254;DHT22;590;48.772;8.846;2022-12-07T09:51:19;6.10;93.60
254;DHT22;590;48.772;8.846;2022-12-07T09:53:53;6.10;93.40
254;DHT22;590;48.772;8.846;2022-12-07T09:56:23;6.10;93.10
254;DHT22;590;48.772;8.846;2022-12-07T09:58:56;6.10;93.30
254;DHT22;590;48.772;8.846;2022-12-07T10:01:28;6.10;93.30
254;DHT22;590;48.772;8.846;2022-12-07T10:04:05;6.10;93.40
254;DHT22;590;48.772;8.846;2022-12-07T10:06:34;6.10;93.30
254;DHT22;590;48.772;8.846;2022-12-07T10:09:09;6.10;93.20
254;DHT22;590;48.772;8.846;2022-12-07T10:11:58;6.20;93.50
254;DHT22;590;48.772;8.846;2022-12-07T10:14:27;6.20;93.40
254;DHT22;590;48.772;8.846;2022-12-07T10:17:30;6.20;93.40
254;DHT22;590;48.772;8.846;2022-12-07T10:20:19;6.20;93.40
254;DHT22;590;48.772;8.846;2022-12-07T10:23:02;6.30;92.60
254;DHT22;590;48.772;8.846;2022-12-07T10:25:34;6.30;92.30
254;DHT22;590;48.772;8.846;2022-12-07T10:28:12;6.30;92.40
254;DHT22;590;48.772;8.846;2022-12-07T10:30:52;6.40;92.40
254;DHT22;590;48.772;8.846;2022-12-07T10:33:35;6.50;92.50
254;DHT22;590;48.772;8.846;2022-12-07T10:36:17;6.60;91.90
254;DHT22;590;48.772;8.846;2022-12-07T10:38:47;6.70;91.80
254;DHT22;590;48.772;8.846;2022-12-07T10:41:17;6.70;91.30
254;DHT22;590;48.772;8.846;2022-12-07T10:43:48;6.80;90.90
254;DHT22;590;48.772;8.846;2022-12-07T10:53:03;6.80;91.00
254;DHT22;590;48.772;8.846;2022-12-07T10:55:45;6.80;90.80
254;DHT22;590;48.772;8.846;2022-12-07T10:58:32;6.80;90.80
254;DHT22;590;48.772;8.846;2022-12-07T11:01:10;6.70;91.00
254;DHT22;590;48.772;8.846;2022-12-07T11:04:02;6.70;91.20
254;DHT22;590;48.772;8.846;2022-12-07T11:06:35;6.80;91.70
254;DHT22;590;48.772;8.846;2022-12-07T11:09:27;6.80;91.50
254;DHT22;590;48.772;8.846;2022-12-07T11:12:24;6.80;91.30
254;DHT22;590;48.772;8.846;2022-12-07T11:15:12;6.80;91.10
254;DHT22;590;48.772;8.846;2022-12-07T11:17:48;6.80;91.30
254;DHT22;590;48.772;8.846;2022-12-07T11:20:29;6.70;91.40
254;DHT22;590;48.772;8.846;2022-12-07T11:23:10;6.70;91.40
254;DHT22;590;48.772;8.846;2022-12-07T11:25:46;6.70;91.80
254;DHT22;590;48.772;8.846;2022-12-07T11:28:26;6.70;92.10
254;DHT22;590;48.772;8.846;2022-12-07T11:31:05;6.70;92.00
254;DHT22;590;48.772;8.846;2022-12-07T11:33:41;6.70;91.90
254;DHT22;590;48.772;8.846;2022-12-07T11:36:21;6.60;92.10
254;DHT22;590;48.772;8.846;2022-12-07T11:38:55;6.60;92.20
254;DHT22;590;48.772;8.846;2022-12-07T11:41:28;6.60;92.50
254;DHT22;590;48.772;8.846;2022-12-07T11:44:02;6.60;92.70
254;DHT22;590;48.772;8.846;2022-12-07T11:46:45;6.60;93.00
254;DHT22;590;48.772;8.846;2022-12-07T11:49:20;6.60;92.70
254;DHT22;590;48.772;8.846;2022-12-07T11:51:53;6.60;92.30
254;DHT22;590;48.772;8.846;2022-12-07T11:54:26;6.60;92.30
254;DHT22;590;48.772;8.846;2022-12-07T11:56:56;6.60;91.80
254;DHT22;590;48.772;8.846;2022-12-07T11:59:32;6.50;91.80
254;DHT22;590;48.772;8.846;2022-12-07T12:02:11;6.40;91.60
254;DHT22;590;48.772;8.846;2022-12-07T12:04:47;6.40;91.90
254;DHT22;590;48.772;8.846;2022-12-07T12:07:21;6.20;92.30
254;DHT22;590;48.772;8.846;2022-12-07T12:10:17;6.20;92.40
254;DHT22;590;48.772;8.846;2022-12-07T12:13:07;6.20;92.60
254;DHT22;590;48.772;8.846;2022-12-07T12:16:30;6.10;92.70
254;DHT22;590;48.772;8.846;2022-12-07T12:19:16;6.10;92.60
254;DHT22;590;48.772;8.846;2022-12-07T12:21:47;6.00;92.50
254;DHT22;590;48.772;8.846;2022-12-07T12:24:23;6.00;92.70
254;DHT22;590;48.772;8.846;2022-12-07T12:26:55;6.00;93.00
254;DHT22;590;48.772;8.846;2022-12-07T12:29:30;6.00;93.10
254;DHT22;590;48.772;8.846;2022-12-07T12:32:12;6.00;93.10
254;DHT22;590;48.772;8.846;2022-12-07T12:34:59;5.90;93.40
254;DHT22;590;48.772;8.846;2022-12-07T12:37:44;5.90;93.20
254;DHT22;590;48.772;8.846;2022-12-07T12:43:45;5.90;93.20
254;DHT22;590;48.772;8.846;2022-12-07T12:46:45;5.90;93.40
254;DHT22;590;48.772;8.846;2022-12-07T12:49:54;5.90;93.20
254;DHT22;590;48.772;8.846;2022-12-07T12:52:55;5.90;93.30
254;DHT22;590;48.772;8.846;2022-12-07T12:58:33;5.90;93.30
254;DHT22;590;48.772;8.846;2022-12-07T13:01:33;5.90;93.60
254;DHT22;590;48.772;8.846;2022-12-07T13:07:01;5.80;94.40
254;DHT22;590;48.772;8.846;2022-12-07T13:09:32;5.80;94.10
254;DHT22;590;48.772;8.846;2022-12-07T13:12:04;5.80;93.90
254;DHT22;590;48.772;8.846;2022-12-07T13:14:57;5.80;93.60
254;DHT22;590;48.772;8.846;2022-12-07T13:17:55;5.80;93.90
254;DHT22;590;48.772;8.846;2022-12-07T13:20:49;5.80;93.70
254;DHT22;590;48.772;8.846;2022-12-07T13:23:31;5.80;93.70
254;DHT22;590;48.772;8.846;2022-12-07T13:26:12;5.90;93.70
254;DHT22;590;48.772;8.846;2022-12-07T13:28:45;6.00;93.10
254;DHT22;590;48.772;8.846;2022-12-07T13:31:19;6.00;93.00
254;DHT22;590;48.772;8.846;2022-12-07T13:33:48;6.00;92.80
254;DHT22;590;48.772;8.846;2022-12-07T13:36:20;6.00;92.70
254;DHT22;590;48.772;8.846;2022-12-07T13:38:53;6.10;92.60
254;DHT22;590;48.772;8.846;2022-12-07T13:41:22;6.10;92.40
254;DHT22;590;48.772;8.846;2022-12-07T13:44:02;6.10;92.30
254;DHT22;590;48.772;8.846;2022-12-07T13:46:40;6.10;92.70
254;DHT22;590;48.772;8.846;2022-12-07T13:49:20;6.20;92.40
254;DHT22;590;48.772;8.846;2022-12-07T13:51:49;6.10;91.90
254;DHT22;590;48.772;8.846;2022-12-07T13:54:19;6.00;92.40
254;DHT22;590;48.772;8.846;2022-12-07T13:56:50;6.00;92.70
254;DHT22;590;48.772;8.846;2022-12-07T13:59:20;6.00;92.50
254;DHT22;590;48.772;8.846;2022-12-07T14:01:51;5.90;92.80
254;DHT22;590;48.772;8.846;2022-12-07T14:04:31;5.90;93.40
254;DHT22;590;48.772;8.846;2022-12-07T14:06:59;5.80;93.50
254;DHT22;590;48.772;8.846;2022-12-07T14:09:30;5.80;93.40
254;DHT22;590;48.772;8.846;2022-12-07T14:11:58;5.70;93.50
254;DHT22;590;48.772;8.846;2022-12-07T14:14:29;5.70;93.70
254;DHT22;590;48.772;8.846;2022-12-07T14:17:12;5.70;93.70
254;DHT22;590;48.772;8.846;2022-12-07T14:19:48;5.60;93.80
254;DHT22;590;48.772;8.846;2022-12-07T14:22:23;5.60;93.90
254;DHT22;590;48.772;8.846;2022-12-07T14:27:55;5.40;93.90
254;DHT22;590;48.772;8.846;2022-12-07T14:30:26;5.30;94.60
254;DHT22;590;48.772;8.846;2022-12-07T14:32:58;5.20;95.00
254;DHT22;590;48.772;8.846;2022-12-07T14:35:27;5.20;95.50
254;DHT22;590;48.772;8.846;2022-12-07T14:37:55;5.20;96.10
254;DHT22;590;48.772;8.846;2022-12-07T14:40:26;5.20;96.20
254;DHT22;590;48.772;8.846;2022-12-07T14:42:57;5.20;96.60
254;DHT22;590;48.772;8.846;2022-12-07T14:45:25;5.20;96.40
254;DHT22;590;48.772;8.846;2022-12-07T14:47:53;5.20;96.40
254;DHT22;590;48.772;8.846;2022-12-07T14:50:44;5.10;96.50
254;DHT22;590;48.772;8.846;2022-12-07T14:53:35;5.10;96.20
254;DHT22;590;48.772;8.846;2022-12-07T14:56:06;5.00;96.50
254;DHT22;590;48.772;8.846;2022-12-07T14:58:34;5.00;97.30
254;DHT22;590;48.772;8.846;2022-12-07T15:01:02;4.90;98.00
254;DHT22;590;48.772;8.846;2022-12-07T15:03:30;4.90;98.70
254;DHT22;590;48.772;8.846;2022-12-07T15:05:58;4.90;99.40
254;DHT22;590;48.772;8.846;2022-12-07T15:08:27;4.90;99.70
254;DHT22;590;48.772;8.846;2022-12-07T15:10:55;4.90;99.90
254;DHT22;590;48.772;8.846;2022-12-07T15:13:24;4.80;99.90
254;DHT22;590;48.772;8.846;2022-12-07T15:16:11;4.80;99.90
254;DHT22;590;48.772;8.846;2022-12-07T15:18:40;4.70;99.90
254;DHT22;590;48.772;8.846;2022-12-07T15:21:28;4.60;99.90
254;DHT22;590;48.772;8.846;2022-12-07T15:23:56;4.60;99.90
254;DHT22;590;48.772;8.846;2022-12-07T15:26:24;4.50;99.90
254;DHT22;590;48.772;8.846;2022-12-07T15:28:54;4.50;99.90
254;DHT22;590;48.772;8.846;2022-12-07T15:31:22;4.50;99.90
254;DHT22;590;48.772;8.846;2022-12-07T15:34:10;4.50;99.90
254;DHT22;590;48.772;8.846;2022-12-07T15:36:38;4.40;99.90
254;DHT22;590;48.772;8.846;2022-12-07T15:39:06;4.30;99.90
254;DHT22;590;48.772;8.846;2022-12-07T15:41:41;4.30;99.90
254;DHT22;590;48.772;8.846;2022-12-07T15:44:12;4.30;99.90
254;DHT22;590;48.772;8.846;2022-12-07T15:46:57;4.30;99.90
254;DHT22;590;48.772;8.846;2022-12-07T15:49:26;4.30;99.90
254;DHT22;590;48.772;8.846;2022-12-07T15:51:54;4.30;99.90
254;DHT22;590;48.772;8.846;2022-12-07T15:54:24;4.30;99.90
254;DHT22;590;48.772;8.846;2022-12-07T15:56:52;4.30;99.90
254;DHT22;590;48.772;8.846;2022-12-07T15:59:22;4.20;99.90
254;DHT22;590;48.772;8.846;2022-12-07T16:01:50;4.20;99.90
254;DHT22;590;48.772;8.846;2022-12-07T16:04:18;4.20;99.90
254;DHT22;590;48.772;8.846;2022-12-07T16:06:46;4.20;99.90
254;DHT22;590;48.772;8.846;2022-12-07T16:09:14;4.20;99.90
254;DHT22;590;48.772;8.846;2022-12-07T16:11:42;4.30;99.90
254;DHT22;590;48.772;8.846;2022-12-07T16:14:10;4.20;99.90
254;DHT22;590;48.772;8.846;2022-12-07T16:16:40;4.30;99.90
254;DHT22;590;48.772;8.846;2022-12-07T16:19:08;4.30;99.90
254;DHT22;590;48.772;8.846;2022-12-07T16:21:37;4.30;99.90
254;DHT22;590;48.772;8.846;2022-12-07T16:24:06;4.30;99.90
254;DHT22;590;48.772;8.846;2022-12-07T16:26:34;4.20;99.90
254;DHT22;590;48.772;8.846;2022-12-07T16:29:02;4.30;99.90
254;DHT22;590;48.772;8.846;2022-12-07T16:31:30;4.30;99.90
254;DHT22;590;48.772;8.846;2022-12-07T16:34:00;4.30;99.90
254;DHT22;590;48.772;8.846;2022-12-07T16:36:28;4.30;99.90
254;DHT22;590;48.772;8.846;2022-12-07T16:39:16;4.30;99.90
254;DHT22;590;48.772;8.846;2022-12-07T16:41:45;4.30;99.90
254;DHT22;590;48.772;8.846;2022-12-07T16:44:13;4.30;99.90
254;DHT22;590;48.772;8.846;2022-12-07T16:46:42;4.30;99.90
254;DHT22;590;48.772;8.846;2022-12-07T16:49:13;4.30;99.90
254;DHT22;590;48.772;8.846;2022-12-07T16:51:41;4.20;99.90
254;DHT22;590;48.772;8.846;2022-12-07T16:54:11;4.20;99.90
254;DHT22;590;48.772;8.846;2022-12-07T16:56:40;4.20;99.90
254;DHT22;590;48.772;8.846;2022-12-07T16:59:08;4.20;99.90
254;DHT22;590;48.772;8.846;2022-12-07T17:01:37;4.20;99.90
254;DHT22;590;48.772;8.846;2022-12-07T17:04:05;4.10;99.90
254;DHT22;590;48.772;8.846;2022-12-07T17:06:35;4.00;99.90
254;DHT22;590;48.772;8.846;2022-12-07T17:09:03;4.00;99.90
254;DHT22;590;48.772;8.846;2022-12-07T17:11:35;3.90;99.90
254;DHT22;590;48.772;8.846;2022-12-07T17:14:03;3.90;99.90
254;DHT22;590;48.772;8.846;2022-12-07T17:16:49;3.90;99.90
254;DHT22;590;48.772;8.846;2022-12-07T17:19:17;3.80;99.90
254;DHT22;590;48.772;8.846;2022-12-07T17:21:47;3.80;99.90
254;DHT22;590;48.772;8.846;2022-12-07T17:24:16;3.70;99.90
254;DHT22;590;48.772;8.846;2022-12-07T17:26:45;3.70;99.90
254;DHT22;590;48.772;8.846;2022-12-07T17:29:15;3.70;99.90
254;DHT22;590;48.772;8.846;2022-12-07T17:31:43;3.70;99.90
254;DHT22;590;48.772;8.846;2022-12-07T17:34:18;3.80;99.90
254;DHT22;590;48.772;8.846;2022-12-07T17:36:47;3.70;99.90
254;DHT22;590;48.772;8.846;2022-12-07T17:39:17;3.80;99.90
254;DHT22;590;48.772;8.846;2022-12-07T17:41:45;3.80;99.90
254;DHT22;590;48.772;8.846;2022-12-07T17:44:31;3.80;99.90
254;DHT22;590;48.772;8.846;2022-12-07T17:46:59;3.80;99.90
254;DHT22;590;48.772;8.846;2022-12-07T17:49:28;3.80;99.90